createdAt,value
2022-11-01T00:00:31.700Z,16.14
2022-11-01T00:02:59.650Z,16.14
2022-11-01T00:05:32.022Z,16.17
2022-11-01T00:08:00.839Z,16.14
2022-11-01T00:10:27.735Z,16.14
2022-11-01T00:13:00.385Z,16.15
2022-11-01T00:15:39.083Z,16.11
2022-11-01T00:18:13.967Z,16.08
2022-11-01T00:20:44.724Z,16.00
2022-11-01T00:23:14.400Z,16.05
2022-11-01T00:28:21.545Z,16.22
2022-11-01T00:30:58.068Z,16.23
2022-11-01T00:33:29.998Z,16.31
2022-11-01T00:36:12.970Z,16.28
2022-11-01T00:38:39.932Z,16.29
2022-11-01T00:41:17.424Z,16.26
2022-11-01T00:43:51.493Z,16.18
2022-11-01T00:46:30.289Z,16.18
2022-11-01T00:49:04.745Z,16.22
2022-11-01T00:51:31.457Z,16.21
2022-11-01T00:53:58.107Z,16.25
2022-11-01T00:56:32.274Z,16.26
2022-11-01T00:58:58.933Z,16.20
2022-11-01T01:01:37.287Z,16.21
2022-11-01T01:04:11.652Z,16.15
2022-11-01T01:06:45.980Z,16.08
2022-11-01T01:09:24.039Z,15.99
2022-11-01T01:11:57.373Z,15.23
2022-11-01T01:14:29.895Z,14.49
2022-11-01T01:17:11.345Z,14.89
2022-11-01T01:19:40.589Z,14.88
2022-11-01T01:22:14.954Z,15.35
2022-11-01T01:24:51.975Z,15.56
2022-11-01T01:27:18.562Z,15.60
2022-11-01T01:29:53.720Z,15.66
2022-11-01T01:32:33.688Z,15.75
2022-11-01T01:35:02.699Z,15.76
2022-11-01T01:37:43.221Z,15.64
2022-11-01T01:40:17.902Z,15.73
2022-11-01T01:45:44.367Z,15.68
2022-11-01T01:48:36.172Z,15.46
2022-11-01T01:51:15.978Z,15.53
2022-11-01T01:53:56.086Z,15.65
2022-11-01T01:56:35.013Z,15.47
2022-11-01T01:59:05.890Z,15.62
2022-11-01T02:01:42.239Z,15.70
2022-11-01T02:04:31.073Z,15.63
2022-11-01T02:07:01.063Z,15.68
2022-11-01T02:09:32.714Z,15.66
2022-11-01T02:12:01.811Z,15.65
2022-11-01T02:14:29.972Z,15.51
2022-11-01T02:17:20.803Z,15.35
2022-11-01T02:20:02.474Z,15.16
2022-11-01T02:22:54.520Z,15.27
2022-11-01T02:25:35.762Z,15.06
2022-11-01T02:28:11.666Z,15.09
2022-11-01T02:31:16.659Z,15.18
2022-11-01T02:33:48.776Z,15.38
2022-11-01T02:36:51.704Z,15.41
2022-11-01T02:39:25.382Z,15.35
2022-11-01T02:42:04.336Z,15.35
2022-11-01T02:44:48.436Z,15.04
2022-11-01T02:47:23.414Z,15.04
2022-11-01T02:49:56.088Z,15.18
2022-11-01T02:52:34.997Z,15.27
2022-11-01T02:55:29.751Z,15.29
2022-11-01T02:58:10.055Z,14.90
2022-11-01T03:03:34.269Z,15.09
2022-11-01T03:06:04.085Z,15.04
2022-11-01T03:08:47.315Z,15.12
2022-11-01T03:11:24.102Z,15.15
2022-11-01T03:14:12.371Z,15.07
2022-11-01T03:16:59.546Z,15.09
2022-11-01T03:19:46.751Z,14.89
2022-11-01T03:22:38.942Z,14.89
2022-11-01T03:25:52.659Z,15.07
2022-11-01T03:28:24.803Z,14.90
2022-11-01T03:31:15.001Z,15.06
2022-11-01T03:33:58.248Z,15.05
2022-11-01T03:36:45.603Z,14.95
2022-11-01T03:42:09.908Z,14.91
2022-11-01T03:44:46.677Z,14.93
2022-11-01T03:47:22.338Z,14.95
2022-11-01T03:50:08.854Z,14.86
2022-11-01T03:52:41.912Z,14.92
2022-11-01T03:55:20.557Z,14.83
2022-11-01T03:58:03.911Z,14.86
2022-11-01T04:00:39.064Z,14.65
2022-11-01T04:03:06.670Z,14.63
2022-11-01T04:05:40.182Z,14.69
2022-11-01T04:08:16.178Z,14.72
2022-11-01T04:10:45.050Z,14.75
2022-11-01T04:13:11.678Z,14.52
2022-11-01T04:16:01.679Z,14.33
2022-11-01T04:18:55.294Z,14.20
2022-11-01T04:21:31.978Z,14.39
2022-11-01T04:24:08.754Z,14.34
2022-11-01T04:26:41.657Z,14.44
2022-11-01T04:31:48.899Z,14.62
2022-11-01T04:34:46.747Z,14.67
2022-11-01T04:37:13.866Z,14.72
2022-11-01T04:39:40.497Z,14.69
2022-11-01T04:42:09.891Z,14.71
2022-11-01T04:44:43.297Z,14.70
2022-11-01T04:47:17.785Z,14.74
2022-11-01T04:52:28.121Z,14.64
2022-11-01T04:55:02.452Z,14.54
2022-11-01T04:57:29.094Z,14.55
2022-11-01T05:00:01.168Z,14.45
2022-11-01T05:02:30.756Z,14.45
2022-11-01T05:05:01.908Z,14.59
2022-11-01T05:10:14.093Z,14.39
2022-11-01T05:12:52.435Z,14.44
2022-11-01T05:15:29.736Z,14.47
2022-11-01T05:17:56.854Z,14.46
2022-11-01T05:20:35.317Z,14.50
2022-11-01T05:23:03.860Z,14.52
2022-11-01T05:25:38.361Z,14.52
2022-11-01T05:28:14.029Z,14.40
2022-11-01T05:30:49.710Z,14.44
2022-11-01T05:33:28.916Z,14.34
2022-11-01T05:35:55.905Z,14.44
2022-11-01T05:38:27.592Z,14.42
2022-11-01T05:41:03.055Z,14.52
2022-11-01T05:43:31.948Z,14.43
2022-11-01T05:46:02.933Z,14.51
2022-11-01T05:48:38.564Z,14.55
2022-11-01T05:51:05.913Z,14.59
2022-11-01T05:53:37.811Z,14.62
2022-11-01T05:56:04.578Z,14.66
2022-11-01T05:58:43.975Z,14.59
2022-11-01T06:01:15.375Z,14.63
2022-11-01T06:03:44.064Z,14.66
2022-11-01T06:06:21.482Z,14.63
2022-11-01T06:11:52.414Z,14.71
2022-11-01T06:17:17.647Z,15.09
2022-11-01T06:19:44.301Z,15.00
2022-11-01T06:22:12.272Z,15.00
2022-11-01T06:27:22.548Z,14.65
2022-11-01T06:29:52.038Z,14.92
2022-11-01T06:35:02.913Z,14.94
2022-11-01T06:37:31.988Z,15.06
2022-11-01T06:39:58.584Z,15.18
2022-11-01T06:42:43.650Z,15.13
2022-11-01T06:48:02.615Z,15.30
2022-11-01T06:50:30.311Z,15.40
2022-11-01T06:53:13.482Z,15.48
2022-11-01T06:55:42.842Z,15.57
2022-11-01T06:58:22.097Z,15.60
2022-11-01T07:00:51.805Z,15.73
2022-11-01T07:03:18.745Z,15.79
2022-11-01T07:08:28.691Z,15.77
2022-11-01T07:11:03.080Z,15.82
2022-11-01T07:13:39.602Z,15.90
2022-11-01T07:16:07.467Z,15.86
2022-11-01T07:18:37.320Z,15.98
2022-11-01T07:21:09.125Z,16.13
2022-11-01T07:23:43.013Z,16.15
2022-11-01T07:26:13.164Z,16.04
2022-11-01T07:28:43.042Z,16.22
2022-11-01T07:31:21.696Z,16.29
2022-11-01T07:33:59.064Z,16.01
2022-11-01T07:36:45.861Z,15.85
2022-11-01T07:39:18.681Z,16.28
2022-11-01T07:41:45.269Z,16.50
2022-11-01T07:44:13.782Z,16.56
2022-11-01T07:46:46.028Z,16.54
2022-11-01T07:49:19.465Z,16.59
2022-11-01T07:51:47.479Z,16.52
2022-11-01T07:54:19.912Z,16.61
2022-11-01T07:56:52.325Z,16.56
2022-11-01T07:59:27.213Z,16.70
2022-11-01T08:01:54.758Z,16.73
2022-11-01T08:04:33.837Z,16.83
2022-11-01T08:07:00.710Z,16.85
2022-11-01T08:09:32.079Z,16.93
2022-11-01T08:12:01.337Z,16.98
2022-11-01T08:14:33.746Z,17.03
2022-11-01T08:17:01.865Z,16.91
2022-11-01T08:19:30.890Z,16.94
2022-11-01T08:21:59.747Z,16.96
2022-11-01T08:24:37.421Z,17.13
2022-11-01T08:27:10.742Z,17.00
2022-11-01T08:29:43.402Z,17.15
2022-11-01T08:32:10.030Z,17.33
2022-11-01T08:40:01.223Z,17.48
2022-11-01T08:45:17.629Z,17.63
2022-11-01T08:47:55.363Z,17.78
2022-11-01T08:50:26.526Z,17.91
2022-11-01T08:52:55.152Z,17.86
2022-11-01T08:55:23.059Z,17.91
2022-11-01T08:57:59.517Z,18.02
2022-11-01T09:00:32.949Z,17.97
2022-11-01T09:03:04.032Z,18.17
2022-11-01T09:05:35.382Z,18.20
2022-11-01T09:08:05.798Z,18.19
2022-11-01T09:10:46.433Z,18.33
2022-11-01T09:13:14.818Z,18.36
2022-11-01T09:15:41.411Z,18.26
2022-11-01T09:18:08.338Z,18.36
2022-11-01T09:20:41.511Z,18.27
2022-11-01T09:23:08.190Z,18.04
2022-11-01T09:25:39.630Z,17.95
2022-11-01T09:28:06.278Z,18.17
2022-11-01T09:30:45.107Z,18.41
2022-11-01T09:33:30.618Z,18.63
2022-11-01T09:36:02.497Z,18.88
2022-11-01T09:38:36.269Z,18.81
2022-11-01T09:41:15.012Z,18.91
2022-11-01T09:43:53.698Z,18.96
2022-11-01T09:46:37.603Z,18.67
2022-11-01T09:49:14.584Z,18.89
2022-11-01T09:51:50.421Z,18.97
2022-11-01T09:54:25.894Z,19.06
2022-11-01T09:57:23.620Z,19.19
2022-11-01T10:00:23.263Z,19.36
2022-11-01T10:03:40.812Z,19.42
2022-11-01T10:06:22.001Z,19.59
2022-11-01T10:09:10.664Z,19.50
2022-11-01T10:12:18.427Z,19.48
2022-11-01T10:15:02.624Z,19.73
2022-11-01T10:17:52.480Z,19.70
2022-11-01T10:20:30.614Z,19.78
2022-11-01T10:23:06.207Z,19.72
2022-11-01T10:25:47.950Z,19.94
2022-11-01T10:31:29.544Z,20.05
2022-11-01T10:34:02.673Z,19.99
2022-11-01T10:36:41.925Z,20.29
2022-11-01T10:42:26.922Z,20.53
2022-11-01T10:47:41.945Z,20.41
2022-11-01T10:50:23.378Z,20.63
2022-11-01T10:53:01.732Z,20.82
2022-11-01T10:56:04.142Z,20.92
2022-11-01T10:59:04.948Z,20.87
2022-11-01T11:01:47.567Z,20.94
2022-11-01T11:04:21.581Z,20.75
2022-11-01T11:06:57.406Z,20.70
2022-11-01T11:09:33.356Z,20.88
2022-11-01T11:12:15.217Z,20.95
2022-11-01T11:14:44.712Z,21.21
2022-11-01T11:17:38.675Z,21.22
2022-11-01T11:20:15.855Z,21.28
2022-11-01T11:22:43.423Z,21.37
2022-11-01T11:25:19.683Z,21.48
2022-11-01T11:27:51.618Z,21.46
2022-11-01T11:33:25.981Z,21.59
2022-11-01T11:36:06.790Z,21.70
2022-11-01T11:38:51.153Z,21.75
2022-11-01T11:41:37.512Z,21.82
2022-11-01T11:44:04.356Z,21.71
2022-11-01T11:46:40.531Z,21.79
2022-11-01T11:49:34.911Z,21.74
2022-11-01T11:52:01.876Z,22.05
2022-11-01T11:54:46.400Z,22.03
2022-11-01T11:57:35.643Z,21.92
2022-11-01T12:00:05.830Z,21.99
2022-11-01T12:02:46.749Z,21.97
2022-11-01T12:05:37.678Z,22.11
2022-11-01T12:08:05.865Z,22.19
2022-11-01T12:10:42.267Z,22.23
2022-11-01T12:13:31.896Z,22.22
2022-11-01T12:16:20.800Z,22.42
2022-11-01T12:19:03.673Z,22.47
2022-11-01T12:21:51.088Z,22.61
2022-11-01T12:24:31.018Z,22.52
2022-11-01T12:27:02.676Z,22.25
2022-11-01T12:29:47.074Z,22.45
2022-11-01T12:32:41.297Z,22.29
2022-11-01T12:35:21.198Z,22.43
2022-11-01T12:38:16.481Z,22.47
2022-11-01T12:40:53.572Z,22.67
2022-11-01T12:43:27.925Z,22.75
2022-11-01T12:45:59.773Z,22.72
2022-11-01T12:48:41.743Z,22.79
2022-11-01T12:51:28.246Z,22.77
2022-11-01T12:54:21.986Z,22.80
2022-11-01T12:56:52.045Z,22.82
2022-11-01T12:59:34.381Z,22.65
2022-11-01T13:08:50.647Z,22.72
2022-11-01T13:11:41.746Z,22.73
2022-11-01T13:14:30.459Z,22.85
2022-11-01T13:17:21.278Z,22.96
2022-11-01T13:20:17.545Z,22.90
2022-11-01T13:23:17.279Z,22.86
2022-11-01T13:26:36.463Z,22.83
2022-11-01T13:29:26.760Z,22.95
2022-11-01T13:32:11.813Z,22.98
2022-11-01T13:34:56.829Z,22.94
2022-11-01T13:37:35.505Z,22.96
2022-11-01T13:40:20.413Z,22.86
2022-11-01T13:43:03.093Z,22.89
2022-11-01T13:45:57.200Z,22.78
2022-11-01T13:48:36.671Z,22.64
2022-11-01T13:51:16.330Z,22.75
2022-11-01T13:54:01.438Z,22.77
2022-11-01T13:57:02.265Z,22.63
2022-11-01T14:00:04.855Z,22.60
2022-11-01T14:02:55.732Z,22.60
2022-11-01T14:05:29.536Z,22.54
2022-11-01T14:08:11.511Z,22.45
2022-11-01T14:10:41.815Z,22.42
2022-11-01T14:13:11.153Z,22.40
2022-11-01T14:16:03.215Z,22.16
2022-11-01T14:19:14.741Z,22.01
2022-11-01T14:21:48.726Z,21.88
2022-11-01T14:24:32.182Z,21.85
2022-11-01T14:27:29.071Z,21.76
2022-11-01T14:30:03.403Z,21.71
2022-11-01T14:32:42.094Z,21.56
2022-11-01T14:35:23.041Z,21.53
2022-11-01T14:38:04.059Z,21.46
2022-11-01T14:40:47.744Z,21.26
2022-11-01T14:43:37.063Z,21.26
2022-11-01T14:46:10.190Z,21.16
2022-11-01T14:49:15.357Z,21.00
2022-11-01T14:54:55.125Z,20.85
2022-11-01T14:57:42.374Z,20.85
2022-11-01T15:03:21.201Z,20.78
2022-11-01T15:06:02.192Z,20.76
2022-11-01T15:08:42.816Z,20.63
2022-11-01T15:11:18.699Z,20.62
2022-11-01T15:13:46.269Z,20.54
2022-11-01T15:16:27.294Z,20.48
2022-11-01T15:19:12.003Z,20.38
2022-11-01T15:21:50.879Z,20.40
2022-11-01T15:24:34.247Z,20.28
2022-11-01T15:27:07.527Z,20.13
2022-11-01T15:29:43.545Z,20.02
2022-11-01T15:35:31.466Z,19.95
2022-11-01T15:38:08.432Z,20.03
2022-11-01T15:40:35.666Z,20.00
2022-11-01T15:43:14.144Z,19.78
2022-11-01T15:46:34.459Z,19.45
2022-11-01T15:49:29.766Z,19.55
2022-11-01T15:52:03.442Z,19.50
2022-11-01T15:58:20.916Z,19.35
2022-11-01T16:04:14.709Z,19.44
2022-11-01T16:12:42.462Z,19.49
2022-11-01T16:15:37.457Z,19.54
2022-11-01T16:18:35.254Z,19.43
2022-11-01T16:27:17.283Z,19.46
2022-11-01T16:29:46.860Z,19.37
2022-11-01T16:35:38.060Z,19.45
2022-11-01T16:41:22.878Z,19.55
2022-11-01T16:44:01.474Z,19.48
2022-11-01T16:46:30.253Z,19.41
2022-11-01T16:51:48.573Z,19.31
2022-11-01T16:54:15.723Z,19.22
2022-11-01T16:57:08.163Z,19.11
2022-11-01T17:02:33.127Z,19.04
2022-11-01T17:08:17.881Z,19.04
2022-11-01T17:13:30.599Z,19.04
2022-11-01T17:16:10.796Z,18.93
2022-11-01T17:18:50.703Z,19.00
2022-11-01T17:21:27.409Z,19.05
2022-11-01T17:23:57.710Z,19.04
2022-11-01T17:29:20.199Z,19.02
2022-11-01T17:31:55.069Z,19.02
2022-11-01T17:34:21.839Z,18.98
2022-11-01T17:39:38.105Z,18.99
2022-11-01T17:42:14.063Z,18.95
2022-11-01T17:47:26.562Z,18.83
2022-11-01T17:50:00.118Z,18.87
2022-11-01T18:00:42.573Z,18.80
2022-11-01T18:03:57.324Z,18.66
2022-11-01T18:06:29.694Z,18.61
2022-11-01T18:11:48.392Z,18.55
2022-11-01T18:17:46.723Z,18.48
2022-11-01T18:20:53.099Z,18.41
2022-11-01T18:23:29.368Z,18.44
2022-11-01T18:26:02.291Z,18.44
2022-11-01T18:28:32.493Z,18.40
2022-11-01T18:31:00.333Z,18.36
2022-11-01T18:34:04.312Z,18.20
2022-11-01T18:36:49.752Z,18.12
2022-11-01T18:39:38.066Z,18.10
2022-11-01T18:44:50.291Z,18.19
2022-11-01T18:47:34.867Z,18.35
2022-11-01T18:50:21.594Z,18.38
2022-11-01T18:55:39.101Z,18.30
2022-11-01T18:58:29.720Z,18.30
2022-11-01T19:01:21.021Z,18.33
2022-11-01T19:04:24.022Z,18.21
2022-11-01T19:07:05.991Z,18.32
2022-11-01T19:09:48.299Z,18.27
2022-11-01T19:15:11.627Z,18.35
2022-11-01T19:17:50.143Z,18.29
2022-11-01T19:20:39.453Z,18.33
2022-11-01T19:26:13.292Z,18.42
2022-11-01T19:28:44.992Z,18.40
2022-11-01T19:31:26.093Z,18.34
2022-11-01T19:36:54.270Z,18.25
2022-11-01T19:42:42.318Z,18.34
2022-11-01T19:45:13.999Z,18.27
2022-11-01T19:48:00.021Z,18.29
2022-11-01T19:50:55.949Z,18.30
2022-11-01T19:53:33.866Z,18.46
2022-11-01T19:56:14.434Z,18.53
2022-11-01T19:59:02.277Z,18.36
2022-11-01T20:01:48.549Z,18.31
2022-11-01T20:04:28.712Z,18.19
2022-11-01T20:07:13.782Z,18.07
2022-11-01T20:09:49.472Z,18.11
2022-11-01T20:12:22.264Z,17.99
2022-11-01T20:14:59.659Z,18.01
2022-11-01T20:17:28.679Z,17.95
2022-11-01T20:20:01.697Z,18.00
2022-11-01T20:22:35.128Z,17.91
2022-11-01T20:25:14.781Z,17.91
2022-11-01T20:27:46.661Z,17.74
2022-11-01T20:30:29.486Z,17.70
2022-11-01T20:33:03.798Z,17.68
2022-11-01T20:35:35.035Z,17.66
2022-11-01T20:38:43.963Z,17.79
2022-11-01T20:41:17.627Z,17.38
2022-11-01T20:43:44.442Z,17.51
2022-11-01T20:46:13.419Z,17.49
2022-11-01T20:51:27.197Z,17.49
2022-11-01T20:53:53.937Z,17.51
2022-11-01T20:56:24.816Z,17.42
2022-11-01T20:58:51.507Z,17.19
2022-11-01T21:01:27.555Z,17.23
2022-11-01T21:03:58.235Z,17.31
2022-11-01T21:06:35.726Z,17.30
2022-11-01T21:09:20.979Z,17.21
2022-11-01T21:11:53.665Z,17.24
2022-11-01T21:14:20.395Z,17.32
2022-11-01T21:16:52.893Z,17.29
2022-11-01T21:19:30.587Z,17.24
2022-11-01T21:24:54.029Z,17.07
2022-11-01T21:27:25.610Z,17.11
2022-11-01T21:30:11.529Z,17.09
2022-11-01T21:32:44.988Z,16.99
2022-11-01T21:35:21.075Z,17.01
2022-11-01T21:37:59.783Z,16.94
2022-11-01T21:40:42.250Z,16.98
2022-11-01T21:43:28.146Z,16.97
2022-11-01T21:46:02.492Z,17.03
2022-11-01T21:48:43.440Z,17.02
2022-11-01T21:51:10.091Z,17.02
2022-11-01T21:53:48.217Z,17.05
2022-11-01T21:56:14.824Z,16.91
2022-11-01T21:58:41.644Z,16.87
2022-11-01T22:01:10.049Z,16.90
2022-11-01T22:06:25.917Z,16.82
2022-11-01T22:08:57.429Z,16.82
2022-11-01T22:11:32.929Z,16.79
2022-11-01T22:14:02.217Z,16.79
2022-11-01T22:16:39.128Z,16.80
2022-11-01T22:19:08.251Z,16.81
2022-11-01T22:21:35.112Z,16.71
2022-11-01T22:24:10.085Z,16.67
2022-11-01T22:26:38.058Z,16.70
2022-11-01T22:29:04.621Z,16.65
2022-11-01T22:31:44.272Z,16.67
2022-11-01T22:34:16.206Z,16.67
2022-11-01T22:36:55.829Z,16.66
2022-11-01T22:39:25.259Z,16.63
2022-11-01T22:41:54.695Z,16.66
2022-11-01T22:44:30.596Z,16.60
2022-11-01T22:47:02.602Z,16.54
2022-11-01T22:49:38.235Z,16.49
2022-11-01T22:52:42.455Z,16.38
2022-11-01T22:55:19.362Z,16.37
2022-11-01T22:57:56.713Z,16.43
2022-11-01T23:00:38.962Z,16.31
2022-11-01T23:03:27.495Z,16.18
2022-11-01T23:06:00.383Z,16.32
2022-11-01T23:08:33.539Z,16.36
2022-11-01T23:11:01.148Z,16.45
2022-11-01T23:13:51.830Z,16.46
2022-11-01T23:16:36.950Z,16.32
2022-11-01T23:19:09.428Z,16.31
2022-11-01T23:21:43.562Z,16.37
2022-11-01T23:24:15.902Z,16.41
2022-11-01T23:26:48.311Z,16.37
2022-11-01T23:29:17.280Z,16.34
2022-11-01T23:31:48.070Z,16.36
2022-11-01T23:34:17.885Z,16.34
2022-11-01T23:36:55.592Z,16.31
2022-11-01T23:39:28.754Z,16.30
2022-11-01T23:42:02.908Z,16.34
2022-11-01T23:44:47.591Z,16.25
2022-11-01T23:47:38.143Z,16.18
2022-11-01T23:50:25.625Z,16.15
2022-11-01T23:52:59.281Z,16.15
2022-11-01T23:55:39.349Z,16.28
2022-11-01T23:58:15.986Z,16.20
